sensor_id;sensor_type;location;lat;lon;timestamp;pressure;altitude;pressure_sealevel;temperature;humidity
9325;BME280;4701;51.566;6.776;2023-11-19T06:05:27;100480.78;;;11.67;100.00
9325;BME280;4701;51.566;6.776;2023-11-19T06:10:28;100494.44;;;11.67;100.00
9325;BME280;4701;51.566;6.776;2023-11-19T06:15:31;100496.09;;;11.68;100.00
9325;BME280;4701;51.566;6.776;2023-11-19T06:20:35;100507.00;;;11.68;100.00
9325;BME280;4701;51.566;6.776;2023-11-19T06:25:36;100509.72;;;11.68;100.00
9325;BME280;4701;51.566;6.776;2023-11-19T06:30:38;100516.56;;;11.65;100.00
9325;BME280;4701;51.566;6.776;2023-11-19T06:35:42;100523.41;;;11.63;100.00
9325;BME280;4701;51.566;6.776;2023-11-19T06:40:44;100525.31;;;11.62;100.00
9325;BME280;4701;51.566;6.776;2023-11-19T06:45:45;100528.88;;;11.63;100.00
9325;BME280;4701;51.566;6.776;2023-11-19T06:50:48;100536.78;;;11.64;100.00
9325;BME280;4701;51.566;6.776;2023-11-19T06:55:50;100545.53;;;11.61;100.00
9325;BME280;4701;51.566;6.776;2023-11-19T07:00:51;100547.16;;;11.62;100.00
9325;BME280;4701;51.566;6.776;2023-11-19T07:05:54;100546.34;;;11.62;100.00
9325;BME280;4701;51.566;6.776;2023-11-19T07:10:56;100546.34;;;11.62;100.00
9325;BME280;4701;51.566;6.776;2023-11-19T07:15:58;100555.91;;;11.59;100.00
9325;BME280;4701;51.566;6.776;2023-11-19T07:21:01;100553.16;;;11.59;100.00
9325;BME280;4701;51.566;6.776;2023-11-19T07:26:05;100581.56;;;11.58;100.00
9325;BME280;4701;51.566;6.776;2023-11-19T07:31:08;100581.56;;;11.58;100.00
9325;BME280;4701;51.566;6.776;2023-11-19T07:36:11;100584.84;;;11.60;100.00
9325;BME280;4701;51.566;6.776;2023-11-19T07:41:13;100595.19;;;11.58;100.00
9325;BME280;4701;51.566;6.776;2023-11-19T07:46:14;100596.28;;;11.57;100.00
9325;BME280;4701;51.566;6.776;2023-11-19T07:51:18;100601.22;;;11.55;100.00
9325;BME280;4701;51.566;6.776;2023-11-19T07:56:19;100594.97;;;11.55;100.00
9325;BME280;4701;51.566;6.776;2023-11-19T08:01:21;100606.16;;;11.53;100.00
9325;BME280;4701;51.566;6.776;2023-11-19T08:06:25;100606.97;;;11.54;100.00
9325;BME280;4701;51.566;6.776;2023-11-19T08:11:26;100620.06;;;11.52;100.00
9325;BME280;4701;51.566;6.776;2023-11-19T08:16:28;100618.16;;;11.52;100.00
9325;BME280;4701;51.566;6.776;2023-11-19T08:21:31;100621.97;;;11.51;100.00
9325;BME280;4701;51.566;6.776;2023-11-19T08:26:34;100638.09;;;11.53;100.00
9325;BME280;4701;51.566;6.776;2023-11-19T08:31:36;100643.53;;;11.53;100.00
9325;BME280;4701;51.566;6.776;2023-11-19T08:36:41;100633.44;;;11.53;100.00
9325;BME280;4701;51.566;6.776;2023-11-19T08:41:42;100623.63;;;11.52;100.00
9325;BME280;4701;51.566;6.776;2023-11-19T08:46:47;100636.72;;;11.55;100.00
9325;BME280;4701;51.566;6.776;2023-11-19T08:51:50;100641.09;;;11.56;100.00
9325;BME280;4701;51.566;6.776;2023-11-19T09:08:19;100633.69;;;11.62;100.00
9325;BME280;4701;51.566;6.776;2023-11-19T09:13:20;100645.16;;;11.64;100.00
9325;BME280;4701;51.566;6.776;2023-11-19T09:18:23;100638.31;;;11.66;100.00
9325;BME280;4701;51.566;6.776;2023-11-19T09:23:29;100626.84;;;11.69;100.00
9325;BME280;4701;51.566;6.776;2023-11-19T09:28:36;100620.31;;;11.75;100.00
9325;BME280;4701;51.566;6.776;2023-11-19T09:33:38;100624.69;;;11.77;100.00
9325;BME280;4701;51.566;6.776;2023-11-19T09:38:41;100618.94;;;11.78;100.00
9325;BME280;4701;51.566;6.776;2023-11-19T09:43:43;100628.22;;;11.82;100.00
9325;BME280;4701;51.566;6.776;2023-11-19T09:48:46;100638.84;;;11.84;100.00
9325;BME280;4701;51.566;6.776;2023-11-19T09:53:54;100627.38;;;11.87;100.00
9325;BME280;4701;51.566;6.776;2023-11-19T18:03:14;100502.03;;;10.95;100.00
9325;BME280;4701;51.566;6.776;2023-11-19T18:08:17;100499.84;;;11.03;100.00
9325;BME280;4701;51.566;6.776;2023-11-19T18:13:21;100494.91;;;11.10;100.00
9325;BME280;4701;51.566;6.776;2023-11-19T18:18:26;100501.72;;;11.17;100.00
9325;BME280;4701;51.566;6.776;2023-11-19T18:23:28;100486.13;;;11.23;100.00
9325;BME280;4701;51.566;6.776;2023-11-19T18:28:33;100494.31;;;11.28;100.00
9325;BME280;4701;51.566;6.776;2023-11-19T18:33:37;100489.38;;;11.35;100.00
9325;BME280;4701;51.566;6.776;2023-11-19T18:38:40;100492.66;;;11.37;100.00
9325;BME280;4701;51.566;6.776;2023-11-19T18:43:48;100489.66;;;11.38;100.00
9325;BME280;4701;51.566;6.776;2023-11-19T18:48:51;100491.81;;;11.42;100.00
9325;BME280;4701;51.566;6.776;2023-11-19T18:53:53;100481.44;;;11.44;100.00
9325;BME280;4701;51.566;6.776;2023-11-19T18:58:56;100479.00;;;11.47;100.00
9325;BME280;4701;51.566;6.776;2023-11-19T19:03:59;100479.81;;;11.48;100.00
9325;BME280;4701;51.566;6.776;2023-11-19T19:09:06;100474.84;;;11.50;100.00
9325;BME280;4701;51.566;6.776;2023-11-19T19:14:08;100482.78;;;11.51;100.00
9325;BME280;4701;51.566;6.776;2023-11-19T19:19:12;100475.94;;;11.49;100.00
9325;BME280;4701;51.566;6.776;2023-11-19T19:24:13;100469.41;;;11.50;100.00
9325;BME280;4701;51.566;6.776;2023-11-19T19:29:15;100465.84;;;11.49;100.00
9325;BME280;4701;51.566;6.776;2023-11-19T19:34:18;100460.94;;;11.51;100.00
9325;BME280;4701;51.566;6.776;2023-11-19T19:39:20;100462.03;;;11.50;100.00
9325;BME280;4701;51.566;6.776;2023-11-19T19:44:21;100454.13;;;11.49;100.00
9325;BME280;4701;51.566;6.776;2023-11-19T19:49:24;100445.38;;;11.52;100.00
9325;BME280;4701;51.566;6.776;2023-11-19T19:54:27;100461.75;;;11.52;100.00
